Terminal Aerodrome Forecast
Issued by NWS

Home | Current Version | Previous Version | Graphics & Text | Print | Product List | Glossary On
Versions: 1 2 3 4 5 6 7 8 9 10 11 12 13 14 15 16 17 18 19 20 21 22 23 24 25 26 27 28
000
FTUS43 KLOT 212320
TAFORD
TAF
KORD 212320Z 2200/2306 26014G22KT P6SM SCT025 OVC035
      TEMPO 2200/2201 BKN025
     FM220200 25012KT P6SM BKN035
     FM221000 24010KT P6SM FEW040
     FM221500 24015G23KT P6SM BKN100
     FM222100 23014G22KT 6SM -SHRA BKN050 PROB30 2222/2301 5SM -TSRA
      OVC050CB
     FM230200 20010KT P6SM VCSH BKN040=

USA.gov is the U.S. government's official web portal to all federal, state and local government web resources and services.